Time;durP1;ratioP1;P1;durP2;ratioP2;P2;SDS_P1;SDS_P2;PMS_P1;PMS_P2;Temp;Humidity;BMP_temperature;BMP_pressure;BME280_temperature;BME280_humidity;BME280_pressure;Samples;Min_cycle;Max_cycle;Signal;HPM_P1;HPM_P2
2021/10/28 00:12:54;;;;;;;56.05;38.15;;;;;;;8.27;66.39;101142.22;4840883;29;101703;-88
2021/10/28 00:15:36;;;;;;;62.50;40.13;;;;;;;8.26;66.60;101141.38;4842651;29;97995;-88
2021/10/28 00:20:34;;;;;;;61.67;40.92;;;;;;;8.36;66.14;101140.34;4837055;29;101532;-88
2021/10/28 00:23:02;;;;;;;64.82;40.55;;;;;;;8.28;66.19;101147.41;4840535;29;101371;-89
2021/10/28 00:25:28;;;;;;;64.15;42.03;;;;;;;8.19;67.00;101128.38;4837676;29;97226;-88
2021/10/28 00:27:54;;;;;;;71.88;42.45;;;;;;;8.25;66.66;101142.22;4838586;29;97168;-88
2021/10/28 00:30:20;;;;;;;69.55;40.83;;;;;;;8.22;66.62;101146.63;4856259;29;101203;-89
2021/10/28 00:32:46;;;;;;;67.05;44.03;;;;;;;8.16;66.92;101144.94;4853602;28;98425;-88
2021/10/28 00:35:13;;;;;;;65.68;42.17;;;;;;;8.09;67.06;101141.53;4853083;29;98023;-90
2021/10/28 00:37:38;;;;;;;60.67;41.90;;;;;;;8.08;66.79;101136.31;4830508;28;97201;-89
2021/10/28 02:42:17;;;;;;;58.33;38.07;;;;;;;7.34;68.82;101123.94;5966432;23;98548;31
2021/10/28 04:37:33;;;;;;;53.93;32.87;;;;;;;6.41;70.39;101099.28;5274284;23;98658;-84
2021/10/28 06:10:07;;;;;;;58.65;34.30;;;;;;;6.79;70.88;101129.53;5829058;23;101192;-88
2021/10/28 06:12:38;;;;;;;54.07;34.57;;;;;;;6.75;70.83;101127.84;4812873;29;96823;-89
2021/10/28 06:15:05;;;;;;;52.87;33.80;;;;;;;6.78;70.76;101125.22;4829090;29;97172;-89
2021/10/28 06:17:44;;;;;;;59.20;36.13;;;;;;;6.79;71.12;101130.41;4811042;29;101684;-86
2021/10/28 06:20:10;;;;;;;51.33;34.93;;;;;;;6.86;71.10;101131.22;4827886;29;100193;-87
2021/10/28 06:22:35;;;;;;;50.73;34.10;;;;;;;6.91;71.25;101131.22;4814403;29;97129;-89
2021/10/28 06:25:02;;;;;;;54.97;33.93;;;;;;;7.02;71.30;101130.28;4828121;28;96803;-88
2021/10/28 06:27:28;;;;;;;52.55;33.28;;;;;;;7.01;71.33;101130.25;4827679;29;100210;-90
2021/10/28 06:29:54;;;;;;;53.67;36.75;;;;;;;7.18;70.65;101133.63;4826549;29;101342;-88
2021/10/28 06:32:20;;;;;;;55.65;36.40;;;;;;;7.11;71.13;101133.69;4825423;29;97261;-87
2021/10/28 06:34:48;;;;;;;58.03;34.13;;;;;;;7.07;71.07;101131.97;4814763;29;96760;-87
2021/10/28 06:37:14;;;;;;;54.73;35.27;;;;;;;7.22;70.80;101139.72;4825812;29;98208;-86
2021/10/28 06:39:41;;;;;;;51.92;34.75;;;;;;;7.21;70.75;101145.78;4826057;29;101615;-88
2021/10/28 06:42:11;;;;;;;50.65;35.88;;;;;;;7.17;71.41;101144.09;4842785;29;96902;-88
2021/10/28 06:44:41;;;;;;;49.30;34.00;;;;;;;7.16;71.43;101137.16;4825019;29;96969;-89
2021/10/28 06:47:07;;;;;;;53.60;35.97;;;;;;;7.33;70.78;101137.91;4825032;29;101465;-89
2021/10/28 06:49:36;;;;;;;57.95;36.88;;;;;;;7.36;70.61;101137.88;4811933;29;101723;-89
2021/10/28 06:52:04;;;;;;;51.60;34.40;;;;;;;7.49;70.56;101142.09;4827360;29;97242;-88
2021/10/28 06:54:36;;;;;;;54.38;34.85;;;;;;;7.69;69.79;101134.09;4824662;29;97921;-87
2021/10/28 07:02:35;;;;;;;59.53;38.13;;;;;;;9.54;65.00;101135.22;4826675;29;97029;-87
2021/10/28 07:05:04;;;;;;;60.08;37.58;;;;;;;9.93;63.58;101130.16;4823874;29;96930;-88
2021/10/28 07:07:31;;;;;;;54.90;35.63;;;;;;;9.98;62.91;101123.09;4826294;29;100916;-87
2021/10/28 07:10:19;;;;;;;53.55;38.15;;;;;;;10.41;61.85;101133.63;4811404;29;102057;-87
2021/10/28 07:13:03;;;;;;;52.03;35.95;;;;;;;10.68;61.54;101120.81;4822526;29;96929;-88
2021/10/28 07:26:53;;;;;;;47.53;34.53;;;;;;;12.20;58.01;101119.69;4799114;29;97034;-90
2021/10/28 08:14:58;;;;;;;36.60;27.13;;;;;;;22.39;38.24;101080.91;4822631;29;100891;-88
2021/10/28 08:17:54;;;;;;;36.88;25.58;;;;;;;23.17;36.37;101079.72;4798687;29;96925;-88
2021/10/28 08:20:48;;;;;;;32.33;25.30;;;;;;;23.97;35.60;101082.53;4823081;29;97319;-81
2021/10/28 08:23:15;;;;;;;29.45;26.27;;;;;;;24.24;34.41;101079.47;4836475;29;102254;-80
2021/10/28 08:28:48;;;;;;;27.08;24.23;;;;;;;25.49;32.76;101064.78;4849392;29;97304;-85
2021/10/28 08:31:17;;;;;;;28.70;24.90;;;;;;;25.05;32.96;101064.00;4830987;29;96872;-81
2021/10/28 08:33:43;;;;;;;28.42;24.80;;;;;;;25.51;32.57;101050.25;4827914;29;99333;-81
2021/10/28 08:36:10;;;;;;;29.35;24.60;;;;;;;24.96;33.02;101054.00;4821022;29;97381;-88
2021/10/28 08:38:40;;;;;;;25.48;22.77;;;;;;;26.29;31.67;101039.03;4814595;29;96736;-87
2021/10/28 08:41:07;;;;;;;26.95;21.92;;;;;;;26.60;30.87;101048.78;4816990;29;97711;-87
2021/10/28 08:43:35;;;;;;;24.08;21.50;;;;;;;26.90;30.44;101048.84;4815490;29;100378;-89
2021/10/28 08:46:02;;;;;;;23.90;21.42;;;;;;;26.72;30.98;101043.28;4849446;28;97420;-95
2021/10/28 08:48:30;;;;;;;24.80;22.20;;;;;;;26.68;30.85;101039.19;4850192;29;96860;-92
2021/10/28 09:24:20;;;;;;;25.80;21.80;;;;;;;27.18;30.65;101006.75;4810272;29;97490;-78
2021/10/28 09:27:09;;;;;;;27.67;21.40;;;;;;;26.52;31.56;101019.00;4818125;29;98139;-77
2021/10/28 09:52:28;;;;;;;25.63;20.67;;;;;;;23.17;37.11;101015.44;4836128;29;102197;-85
2021/10/28 10:00:14;;;;;;;23.73;20.10;;;;;;;22.58;38.56;101001.03;4855766;29;98175;-88
2021/10/28 10:02:53;;;;;;;24.48;20.30;;;;;;;22.91;38.26;101007.50;4838426;29;98629;-92
2021/10/28 10:05:26;;;;;;;27.83;20.17;;;;;;;22.58;38.36;101005.53;4821899;29;97582;-88
2021/10/28 10:07:55;;;;;;;25.55;21.80;;;;;;;22.59;38.46;100997.38;4822616;29;97170;-92
2021/10/28 10:10:22;;;;;;;27.45;21.40;;;;;;;22.22;39.07;100995.69;4837553;29;101142;-95
2021/10/28 10:12:48;;;;;;;24.10;21.38;;;;;;;22.04;39.33;100989.81;4854447;29;98057;-93
2021/10/28 10:15:15;;;;;;;25.02;19.30;;;;;;;21.84;39.99;100983.22;4854836;29;97198;-89
2021/10/28 10:17:42;;;;;;;23.05;19.02;;;;;;;21.72;39.83;100990.28;4828921;29;97386;-94
2021/10/28 10:20:09;;;;;;;28.80;19.52;;;;;;;21.41;40.32;100978.19;4850813;29;101659;-92
2021/10/28 10:22:50;;;;;;;22.75;19.02;;;;;;;21.10;41.36;100980.28;4854762;29;98102;-93
2021/10/28 10:26:11;;;;;;;26.17;19.00;;;;;;;20.94;41.17;100974.25;4857324;29;97246;-84
2021/10/28 11:26:46;;;;;;;18.63;13.40;;;;;;;17.73;48.33;100911.09;4851448;29;97119;-81
2021/10/28 12:50:45;;;;;;;22.25;16.58;;;;;;;17.27;50.01;100841.91;4834068;29;98568;-80
2021/10/28 13:35:44;;;;;;;27.60;19.55;;;;;;;16.75;51.36;100823.41;4820010;29;100903;-79
2021/10/28 14:24:39;;;;;;;;;;;;;;;16.28;53.27;100808.13;4843139;29;97353;-82
2021/10/28 15:29:22;;;;;;;30.25;21.95;;;;;;;15.26;55.07;100777.72;4849748;28;97491;-83
2021/10/28 15:34:43;;;;;;;27.98;19.23;;;;;;;15.04;55.67;100775.22;4844697;29;97631;-81
2021/10/28 15:40:06;;;;;;;29.77;22.80;;;;;;;14.90;55.57;100762.59;4837513;28;97504;-78
2021/10/28 16:22:57;;;;;;;31.75;19.27;;;;;;;14.15;56.66;100747.34;4832413;29;97418;-82
2021/10/28 16:25:22;;;;;;;28.55;21.45;;;;;;;14.09;57.46;100750.25;4819701;29;101444;-81
2021/10/28 16:27:48;;;;;;;32.10;20.90;;;;;;;14.07;57.09;100745.94;4820472;29;101112;-82
2021/10/28 16:30:14;;;;;;;31.92;21.33;;;;;;;13.94;57.64;100737.69;4821245;29;97224;-82
2021/10/28 16:32:40;;;;;;;46.40;23.55;;;;;;;13.96;57.73;100741.09;4807731;29;97083;-82
2021/10/28 16:35:06;;;;;;;35.17;23.02;;;;;;;13.79;58.59;100740.03;4822519;29;101152;-83
2021/10/28 16:37:35;;;;;;;39.78;24.02;;;;;;;13.72;58.37;100740.34;4802960;29;101654;-83
2021/10/28 16:40:05;;;;;;;42.97;25.67;;;;;;;13.55;58.59;100731.31;4808032;29;97393;-83
2021/10/28 16:42:31;;;;;;;34.58;23.45;;;;;;;13.49;59.45;100733.34;4820972;29;97323;-82
2021/10/28 16:44:56;;;;;;;39.38;25.40;;;;;;;13.41;59.16;100727.50;4820758;29;101064;-81
2021/10/28 16:47:23;;;;;;;34.17;23.52;;;;;;;13.38;59.80;100739.06;4822413;29;101645;-82
2021/10/28 16:49:48;;;;;;;40.72;24.73;;;;;;;13.34;59.40;100738.28;4806513;29;96832;-82
2021/10/28 16:52:15;;;;;;;43.20;24.55;;;;;;;13.23;59.85;100724.63;4822777;29;97611;-78
2021/10/28 16:54:40;;;;;;;38.38;25.60;;;;;;;13.30;59.78;100741.13;4820511;29;100893;-81
2021/10/28 16:57:06;;;;;;;43.88;26.48;;;;;;;13.23;59.84;100735.19;4810848;29;101842;-78
2021/10/28 16:59:31;;;;;;;40.40;27.67;;;;;;;13.19;60.33;100746.75;4804672;29;97162;-78
2021/10/28 17:01:58;;;;;;;44.25;27.70;;;;;;;13.11;60.19;100731.22;4820319;29;97729;-78
2021/10/28 17:04:23;;;;;;;40.42;27.08;;;;;;;13.07;60.30;100734.91;4816817;29;102328;-79
2021/10/28 17:06:52;;;;;;;42.28;27.85;;;;;;;13.27;60.29;100736.81;4819493;29;102568;-78
2021/10/28 17:09:17;;;;;;;42.50;26.75;;;;;;;13.07;60.93;100745.47;4820249;29;97589;-79
2021/10/28 17:11:43;;;;;;;39.08;27.00;;;;;;;13.04;60.94;100737.66;4830461;29;97231;-79
2021/10/28 17:14:08;;;;;;;38.75;26.33;;;;;;;13.06;60.80;100741.13;4850569;29;98071;-79
2021/10/28 17:16:36;;;;;;;41.10;27.63;;;;;;;13.10;60.34;100737.44;4818258;29;101539;-79
2021/10/28 17:19:03;;;;;;;40.47;26.38;;;;;;;12.93;60.97;100750.38;4832253;29;97360;-77
2021/10/28 17:21:29;;;;;;;55.75;26.90;;;;;;;13.13;60.31;100749.63;4834092;29;97401;-78
2021/10/28 17:24:03;;;;;;;46.28;29.38;;;;;;;12.96;60.87;100747.63;4831728;29;100259;-77
2021/10/28 17:26:31;;;;;;;68.70;43.40;;;;;;;13.12;59.99;100747.94;4838525;29;101481;-78
2021/10/28 17:29:01;;;;;;;57.33;39.63;;;;;;;12.82;60.74;100745.50;4848188;29;97183;-78
2021/10/28 17:31:32;;;;;;;50.83;35.80;;;;;;;12.81;60.69;100748.19;4836342;29;96906;-78
2021/10/28 17:33:58;;;;;;;54.47;32.72;;;;;;;12.89;60.57;100746.16;4819183;29;99845;-78
2021/10/28 17:36:26;;;;;;;51.22;32.83;;;;;;;12.68;61.24;100743.38;4837015;29;97947;-80
2021/10/28 17:38:51;;;;;;;45.92;30.15;;;;;;;12.71;61.42;100741.53;4820626;29;97143;-80
2021/10/28 17:41:18;;;;;;;50.83;32.08;;;;;;;12.63;61.29;100747.94;4821801;29;97291;-80
2021/10/28 17:43:51;;;;;;;45.40;32.33;;;;;;;12.56;61.47;100741.16;4849913;29;97633;-81
2021/10/28 17:46:18;;;;;;;47.70;32.70;;;;;;;12.42;61.89;100732.88;4831722;29;101272;-81
2021/10/28 17:48:44;;;;;;;53.38;34.85;;;;;;;12.50;61.57;100743.16;4834463;29;97661;-80
2021/10/28 17:51:09;;;;;;;45.45;31.38;;;;;;;12.52;61.25;100733.44;4836920;29;97300;-80
2021/10/28 17:53:36;;;;;;;41.85;29.83;;;;;;;12.45;60.86;100732.81;4854078;29;98090;-78
2021/10/28 17:56:02;;;;;;;55.38;31.45;;;;;;;12.43;61.34;100739.91;4837567;29;101622;-81
2021/10/28 17:58:27;;;;;;;49.40;33.22;;;;;;;12.55;60.55;100738.59;4831791;29;96830;-82
2021/10/28 18:00:53;;;;;;;51.75;34.63;;;;;;;12.38;61.13;100728.66;4836015;29;97572;-82
2021/10/28 18:03:20;;;;;;;52.63;32.65;;;;;;;12.17;61.93;100731.13;4839312;29;101542;-82
2021/10/28 18:05:46;;;;;;;49.92;32.25;;;;;;;12.15;61.94;100734.72;4817871;29;100936;-82
2021/10/28 18:08:14;;;;;;;52.83;33.50;;;;;;;12.12;62.18;100735.66;4832179;29;96787;-83
2021/10/28 18:10:39;;;;;;;60.22;35.80;;;;;;;12.20;61.53;100731.00;4832851;29;97543;-85
2021/10/28 18:13:05;;;;;;;55.80;34.25;;;;;;;12.05;62.01;100730.69;4839204;29;102112;-83
2021/10/28 18:15:31;;;;;;;54.75;34.83;;;;;;;11.99;62.21;100729.97;4822106;29;101649;-83
2021/10/28 18:17:58;;;;;;;57.50;35.63;;;;;;;11.86;62.52;100712.00;4837045;29;97450;-82
2021/10/28 18:20:24;;;;;;;59.33;35.17;;;;;;;11.89;62.55;100725.91;4835455;29;96788;-82
2021/10/28 18:22:50;;;;;;;52.67;35.63;;;;;;;11.82;62.15;100718.25;4835663;29;101158;-84
2021/10/28 18:25:15;;;;;;;65.20;37.70;;;;;;;11.91;62.07;100717.97;4828759;29;101250;-83
2021/10/28 18:27:41;;;;;;;53.25;34.35;;;;;;;11.99;62.37;100721.22;4832270;29;97593;-84
2021/10/28 18:30:10;;;;;;;55.85;35.92;;;;;;;11.85;62.71;100718.16;4849770;29;97903;-85
2021/10/28 18:32:36;;;;;;;57.33;36.60;;;;;;;11.75;61.69;100717.56;4851176;28;98572;-85
2021/10/28 18:35:04;;;;;;;56.38;36.33;;;;;;;11.62;62.21;100722.38;4851533;29;98120;-87
2021/10/28 18:37:29;;;;;;;58.38;37.50;;;;;;;11.70;61.65;100712.47;4849072;29;97342;-85
2021/10/28 18:39:55;;;;;;;58.42;38.10;;;;;;;11.54;62.04;100706.84;4850106;28;97431;-87
2021/10/28 18:42:20;;;;;;;51.70;35.72;;;;;;;11.65;61.30;100703.88;4836732;29;97363;-84
2021/10/28 18:44:46;;;;;;;57.53;36.25;;;;;;;11.67;60.44;100704.69;4836402;29;101532;-84
2021/10/28 18:47:13;;;;;;;56.85;35.42;;;;;;;11.71;60.41;100708.09;4849023;29;97417;-84
2021/10/28 18:49:40;;;;;;;53.22;34.17;;;;;;;11.73;59.42;100703.63;4851148;29;97284;-82
2021/10/28 18:52:07;;;;;;;56.42;35.78;;;;;;;11.64;59.74;100696.06;4834229;29;99360;-85
2021/10/28 18:54:32;;;;;;;53.95;37.15;;;;;;;11.49;60.62;100713.16;4837597;29;98362;-87
2021/10/28 18:56:58;;;;;;;54.00;35.35;;;;;;;11.35;60.54;100707.50;4853963;29;96889;-87
2021/10/28 18:59:24;;;;;;;54.65;37.33;;;;;;;11.25;60.84;100710.38;4837919;29;97951;-87
2021/10/28 19:01:50;;;;;;;60.00;37.58;;;;;;;11.23;60.61;100709.59;4838627;29;101560;-87
2021/10/28 19:04:18;;;;;;;52.80;34.63;;;;;;;11.31;60.30;100704.06;4851027;29;100564;-86
2021/10/28 19:06:46;;;;;;;53.42;36.17;;;;;;;11.32;59.74;100698.78;4853301;29;97160;-83
2021/10/28 19:09:14;;;;;;;57.92;37.85;;;;;;;11.28;59.62;100705.03;4850353;29;97129;-89
2021/10/28 19:11:41;;;;;;;54.35;36.30;;;;;;;11.29;59.36;100700.66;4837366;29;101552;-81
2021/10/28 19:14:07;;;;;;;55.50;37.67;;;;;;;11.29;58.96;100696.25;4837754;29;101977;-88
2021/10/28 19:16:32;;;;;;;58.17;37.25;;;;;;;11.33;59.02;100704.91;4853438;29;97198;-88
2021/10/28 19:19:02;;;;;;;62.70;40.65;;;;;;;11.25;58.99;100699.88;4834793;29;97450;-86
2021/10/28 19:21:28;;;;;;;66.88;41.97;;;;;;;11.05;59.13;100699.63;4835596;29;101185;-86
2021/10/28 19:23:55;;;;;;;72.68;42.00;;;;;;;10.91;59.90;100702.69;4838061;29;101552;-85
2021/10/28 19:26:21;;;;;;;56.15;38.45;;;;;;;10.90;59.91;100703.56;4823639;29;97168;-86
2021/10/28 19:28:47;;;;;;;64.82;40.15;;;;;;;10.92;60.02;100700.91;4837699;29;97411;-86
2021/10/28 19:31:24;;;;;;;61.83;38.47;;;;;;;10.95;59.37;100692.94;4821082;29;101729;-86
2021/10/28 19:33:55;;;;;;;60.67;39.65;;;;;;;10.91;59.38;100707.03;4854230;28;101029;-86
2021/10/28 19:36:29;;;;;;;64.80;40.27;;;;;;;10.83;59.10;100692.38;4839658;29;97211;-85
2021/10/28 19:39:21;;;;;;;66.53;41.00;;;;;;;10.73;59.39;100690.06;4834790;29;97284;-85
2021/10/28 19:42:12;;;;;;;60.42;36.75;;;;;;;10.61;59.25;100684.25;4822067;29;101366;-85
2021/10/28 19:47:22;;;;;;;61.10;39.15;;;;;;;10.58;59.54;100694.84;4853947;29;97184;-86
2021/10/28 19:49:48;;;;;;;53.42;37.80;;;;;;;10.64;59.18;100685.94;4833533;29;98107;-84
2021/10/28 19:52:15;;;;;;;63.40;38.13;;;;;;;10.50;58.97;100688.06;4823048;29;100640;-83
2021/10/28 19:54:49;;;;;;;58.60;36.00;;;;;;;10.30;59.43;100680.78;4821478;29;101809;-84
2021/10/28 19:57:19;;;;;;;60.05;37.67;;;;;;;10.32;59.65;100684.19;4835727;29;97449;-86
2021/10/28 19:59:48;;;;;;;53.70;36.15;;;;;;;10.32;59.41;100679.81;4824096;29;97001;-86
2021/10/28 20:05:22;;;;;;;58.95;37.90;;;;;;;10.32;59.23;100676.34;4821739;29;100957;-86
2021/10/28 20:20:58;;;;;;;56.05;35.92;;;;;;;9.99;59.84;100676.31;4847773;29;97166;-86
2021/10/28 20:23:23;;;;;;;54.22;37.13;;;;;;;9.92;60.13;100678.22;4836572;29;98854;-86
2021/10/28 20:25:49;;;;;;;53.10;34.60;;;;;;;9.93;59.62;100665.97;4851687;29;99715;-86
2021/10/28 20:28:14;;;;;;;62.22;34.45;;;;;;;9.95;59.34;100678.16;4837435;29;96803;-85
2021/10/28 20:30:50;;;;;;;57.92;35.80;;;;;;;9.92;59.61;100672.97;4820671;28;97579;-85
2021/10/28 20:33:17;;;;;;;53.15;32.53;;;;;;;9.94;59.09;100680.78;4838091;29;101526;-86
2021/10/28 20:38:17;;;;;;;47.90;32.22;;;;;;;9.79;59.20;100679.44;4855331;28;97089;-86
2021/10/28 20:40:43;;;;;;;51.60;33.55;;;;;;;9.78;60.17;100682.97;4836255;29;97172;-86
2021/10/28 20:43:09;;;;;;;50.47;32.72;;;;;;;9.79;59.19;100674.19;4840006;29;101844;-85
2021/10/28 20:45:35;;;;;;;47.17;32.17;;;;;;;9.86;59.13;100677.50;4838620;29;100867;-87
2021/10/28 20:48:01;;;;;;;44.85;29.67;;;;;;;9.83;58.77;100680.22;4854019;29;97173;-87
2021/10/28 20:50:27;;;;;;;45.60;30.27;;;;;;;9.81;58.87;100682.88;4832963;29;97148;-84
2021/10/28 20:52:53;;;;;;;49.20;33.08;;;;;;;9.74;58.57;100676.06;4828979;29;101652;-86
2021/10/28 20:55:19;;;;;;;47.42;30.40;;;;;;;9.74;59.06;100683.91;4834279;29;100685;-84
2021/10/28 20:57:47;;;;;;;42.65;29.85;;;;;;;9.72;58.65;100677.88;4822859;29;97773;-86
2021/10/28 21:00:16;;;;;;;45.70;30.52;;;;;;;9.77;58.29;100672.50;4837047;29;96836;-86
2021/10/28 21:02:42;;;;;;;44.58;31.77;;;;;;;9.61;59.32;100670.25;4834742;29;101608;-84
2021/10/28 21:05:11;;;;;;;48.90;32.10;;;;;;;9.57;58.33;100671.25;4840536;29;98589;-87
2021/10/28 21:07:41;;;;;;;48.95;32.55;;;;;;;9.65;58.14;100660.56;4838124;29;97120;-87
2021/10/28 21:10:08;;;;;;;51.30;32.30;;;;;;;9.47;59.12;100657.50;4838156;29;97249;-85
2021/10/28 21:12:34;;;;;;;45.42;30.73;;;;;;;9.39;59.02;100655.94;4818469;29;101675;-84
2021/10/28 21:15:00;;;;;;;44.70;30.33;;;;;;;9.30;59.02;100652.63;4806355;29;101612;-85
2021/10/28 21:17:27;;;;;;;43.72;30.75;;;;;;;9.31;59.15;100653.53;4804084;29;97377;-86
2021/10/28 21:19:52;;;;;;;45.88;30.92;;;;;;;9.21;58.93;100649.38;4822137;29;97282;-85
2021/10/28 21:22:18;;;;;;;43.70;28.80;;;;;;;9.23;nan;100656.31;4823890;29;98582;-86
2021/10/28 21:24:45;;;;;;;46.15;28.40;;;;;;;9.21;59.28;100652.00;4822839;29;98262;-84
2021/10/28 21:27:12;;;;;;;44.90;30.65;;;;;;;9.37;59.11;100650.75;4818225;29;97843;-85
2021/10/28 21:29:38;;;;;;;40.80;28.85;;;;;;;9.32;58.89;100646.53;4821880;29;97314;-85
2021/10/28 21:32:05;;;;;;;41.25;27.95;;;;;;;9.28;58.42;100643.97;4819952;29;101326;-85
2021/10/28 21:34:30;;;;;;;48.17;29.73;;;;;;;9.39;58.43;100645.47;4833044;29;98515;-86
2021/10/28 21:36:56;;;;;;;51.35;27.58;;;;;;;9.46;58.35;100657.53;4805242;29;97251;-86
2021/10/28 21:39:22;;;;;;;42.33;28.58;;;;;;;9.36;58.42;100656.88;4821203;29;98385;-85
2021/10/28 21:41:47;;;;;;;43.80;28.77;;;;;;;9.12;58.83;100646.97;4822021;29;97434;-82
2021/10/28 21:44:17;;;;;;;42.35;28.95;;;;;;;9.01;59.34;100641.97;4824020;29;100929;-85
2021/10/28 21:46:44;;;;;;;44.35;28.08;;;;;;;9.11;58.95;100655.75;4836476;29;96876;-85
2021/10/28 21:49:10;;;;;;;40.80;29.02;;;;;;;9.20;57.99;100645.06;4821625;29;97297;-86
2021/10/28 21:51:35;;;;;;;42.53;28.92;;;;;;;9.07;59.03;100653.19;4823238;29;100096;-86
2021/10/28 21:54:05;;;;;;;41.85;28.85;;;;;;;8.86;59.43;100642.31;4837664;29;97927;-84
2021/10/28 21:56:38;;;;;;;48.20;28.38;;;;;;;8.99;59.12;100649.88;4844723;28;97175;-85
2021/10/28 22:25:30;;;;;;;37.55;25.38;;;;;;;8.82;57.48;100625.84;4841719;29;101641;-84
2021/10/28 22:27:56;;;;;;;36.75;25.73;;;;;;;8.83;57.81;100627.53;4855317;29;97046;-84
2021/10/28 22:30:22;;;;;;;42.70;26.85;;;;;;;8.67;58.14;100605.19;4838495;29;97200;-83
2021/10/28 22:32:48;;;;;;;38.00;27.50;;;;;;;8.56;59.03;100621.16;4839717;29;97916;-81
2021/10/28 22:35:19;;;;;;;42.58;26.58;;;;;;;8.53;58.33;100613.38;4839578;29;101490;-83
2021/10/28 22:37:59;;;;;;;38.83;26.98;;;;;;;8.76;57.51;100612.88;4822897;29;96925;-84
2021/10/28 22:40:34;;;;;;;42.38;26.85;;;;;;;8.71;57.26;100612.13;4851987;28;97265;-83
2021/10/28 22:43:11;;;;;;;42.25;27.10;;;;;;;8.70;57.37;100613.03;4839234;29;100785;-84
2021/10/28 22:45:38;;;;;;;37.10;26.55;;;;;;;8.59;57.68;100618.47;4838671;29;97106;-84
2021/10/28 22:48:04;;;;;;;34.78;25.17;;;;;;;8.53;57.39;100614.22;4855162;29;97014;-84
2021/10/28 22:50:30;;;;;;;33.10;23.05;;;;;;;8.61;56.81;100616.69;4854767;29;97189;-84
2021/10/28 22:53:00;;;;;;;37.38;22.25;;;;;;;8.60;56.83;100615.81;4820609;29;101655;-85
2021/10/28 22:55:29;;;;;;;31.65;23.15;;;;;;;8.65;56.42;100607.88;4839500;29;98014;-84
2021/10/28 22:58:14;;;;;;;33.92;23.33;;;;;;;8.59;56.24;100600.16;4836987;29;97355;-83
2021/10/28 23:09:04;;;;;;;31.10;21.60;;;;;;;8.68;55.96;100597.34;4840758;29;97017;-85
2021/10/28 23:21:29;;;;;;;29.30;20.85;;;;;;;8.58;56.68;100586.22;4854281;29;97255;-84
2021/10/28 23:23:55;;;;;;;32.60;20.88;;;;;;;8.59;57.65;100592.31;4838116;29;98336;-84
2021/10/28 23:26:20;;;;;;;29.45;20.13;;;;;;;8.54;57.50;100597.63;4823360;29;101210;-84
2021/10/28 23:28:46;;;;;;;31.15;22.13;;;;;;;8.59;57.48;100593.16;4853185;29;97144;-82
2021/10/28 23:31:12;;;;;;;29.73;22.02;;;;;;;8.51;57.89;100588.97;4826341;29;97130;-84
2021/10/28 23:33:38;;;;;;;28.85;21.55;;;;;;;8.47;57.36;100585.56;4838187;29;100473;-82
2021/10/28 23:36:04;;;;;;;30.35;22.10;;;;;;;8.48;57.48;100589.91;4838138;29;100666;-84
2021/10/28 23:38:30;;;;;;;32.85;22.48;;;;;;;8.48;57.22;100589.91;4851411;28;97021;-82
2021/10/28 23:40:56;;;;;;;36.38;24.90;;;;;;;8.35;57.69;100585.81;4837581;29;97043;-84
2021/10/28 23:43:21;;;;;;;37.30;25.00;;;;;;;8.26;57.58;100589.47;4819964;29;100298;-84
2021/10/28 23:45:47;;;;;;;33.13;24.35;;;;;;;8.21;58.04;100593.94;4835699;29;101627;-84
2021/10/28 23:48:12;;;;;;;34.78;22.30;;;;;;;8.10;58.34;100583.66;4839759;29;97807;-84
2021/10/28 23:50:38;;;;;;;37.25;23.90;;;;;;;8.13;58.16;100590.59;4836664;29;97143;-84
2021/10/28 23:53:04;;;;;;;31.00;22.17;;;;;;;8.16;58.06;100599.22;4838135;29;102186;-84
2021/10/28 23:55:30;;;;;;;34.25;24.15;;;;;;;8.21;57.98;100590.47;4822158;29;101319;-83
2021/10/28 23:57:55;;;;;;;30.58;23.00;;;;;;;8.21;57.99;100590.47;4853761;29;97603;-85
